Time;durP1;ratioP1;P1;durP2;ratioP2;P2;SDS_P1;SDS_P2;PMS_P1;PMS_P2;Temp;Humidity;BMP_temperature;BMP_pressure;BME280_temperature;BME280_humidity;BME280_pressure;Samples;Min_cycle;Max_cycle;Signal;HPM_P1;HPM_P2
2023/02/28 00:01:22;;;;;;;3.38;1.50;;;;;;;-0.33;100.00;102863.38;6305365;28;20044;-74
2023/02/28 00:04:24;;;;;;;7.85;2.25;;;;;;;-0.33;100.00;102863.38;6305292;28;20056;-73
2023/02/28 00:07:25;;;;;;;3.08;1.55;;;;;;;-0.34;100.00;102861.63;6304818;28;20337;-74
2023/02/28 00:10:30;;;;;;;3.00;1.80;;;;;;;-0.35;100.00;102853.84;6305120;28;20052;-74
2023/02/28 00:13:31;;;;;;;3.63;1.38;;;;;;;-0.37;100.00;102861.53;6304637;28;20048;-74
2023/02/28 00:16:32;;;;;;;2.75;1.77;;;;;;;-0.48;100.00;102860.41;6304691;28;20063;-74
2023/02/28 00:19:34;;;;;;;3.15;1.50;;;;;;;-0.47;100.00;102872.47;6305121;28;20356;-74
2023/02/28 00:22:35;;;;;;;3.22;1.38;;;;;;;-0.50;100.00;102869.78;6305072;28;20056;-74
2023/02/28 00:25:38;;;;;;;1.73;1.13;;;;;;;-0.53;100.00;102862.84;6304410;28;20056;-74
2023/02/28 00:28:39;;;;;;;4.80;1.75;;;;;;;-0.54;100.00;102868.00;6304299;28;20048;-74
2023/02/28 00:31:41;;;;;;;4.15;2.28;;;;;;;-0.59;100.00;102867.88;6305448;28;20048;-74
2023/02/28 00:34:42;;;;;;;4.68;1.67;;;;;;;-0.68;100.00;102880.53;6304090;28;20052;-74
2023/02/28 00:37:44;;;;;;;1.73;1.25;;;;;;;-0.85;100.00;102889.50;6304242;28;20055;-74
2023/02/28 00:40:46;;;;;;;1.75;0.98;;;;;;;-0.95;100.00;102878.06;6304427;28;20044;-74
2023/02/28 00:43:48;;;;;;;0.90;0.85;;;;;;;-0.89;100.00;102882.50;6304163;28;20048;-74
2023/02/28 00:46:49;;;;;;;0.75;0.75;;;;;;;-0.95;100.00;102885.78;6303803;28;20063;-74
2023/02/28 00:49:50;;;;;;;1.88;1.20;;;;;;;-0.97;100.00;102878.84;6304095;28;20064;-74
2023/02/28 00:52:52;;;;;;;2.30;1.52;;;;;;;-0.91;100.00;102881.56;6304993;28;20048;-75
2023/02/28 00:55:54;;;;;;;1.80;1.25;;;;;;;-0.86;100.00;102880.03;6303437;28;20495;-75
2023/02/28 00:58:56;;;;;;;2.40;1.17;;;;;;;-0.89;100.00;102878.22;6303681;28;20383;-75
2023/02/28 01:01:57;;;;;;;1.60;1.00;;;;;;;-0.91;100.00;102879.00;6303566;28;20048;-75
2023/02/28 01:04:58;;;;;;;2.33;0.93;;;;;;;-0.96;100.00;102881.44;6303567;28;20055;-75
2023/02/28 01:08:00;;;;;;;2.15;1.20;;;;;;;-0.92;100.00;102885.88;6303307;28;20432;-75
2023/02/28 01:11:10;;;;;;;2.45;1.63;;;;;;;-0.99;100.00;102886.53;6303647;28;20048;-75
2023/02/28 01:14:14;;;;;;;3.65;0.73;;;;;;;-1.05;100.00;102881.19;6303398;28;20045;-75
2023/02/28 01:17:16;;;;;;;3.28;1.83;;;;;;;-1.09;100.00;102881.91;6304414;28;20064;-75
2023/02/28 01:20:17;;;;;;;1.48;0.80;;;;;;;-1.08;100.00;102886.28;6303289;28;20326;-75
2023/02/28 01:23:19;;;;;;;2.00;0.90;;;;;;;-1.03;100.00;102885.56;6303376;28;20045;-75
2023/02/28 01:26:23;;;;;;;1.90;0.88;;;;;;;-1.04;100.00;102888.97;6302904;28;20467;-75
2023/02/28 01:29:24;;;;;;;2.35;1.33;;;;;;;-1.02;100.00;102883.84;6303154;28;20460;-75
2023/02/28 01:32:26;;;;;;;1.88;1.10;;;;;;;-1.06;100.00;102884.59;6303145;28;20048;-73
2023/02/28 01:35:27;;;;;;;1.85;1.10;;;;;;;-1.07;100.00;102876.00;6302711;28;20048;-73
2023/02/28 01:38:28;;;;;;;1.48;1.10;;;;;;;-1.11;100.00;102874.16;6302826;28;20067;-73
2023/02/28 01:41:33;;;;;;;1.85;0.98;;;;;;;-1.13;100.00;102880.97;6302833;28;20056;-73
2023/02/28 01:45:07;;;;;;;2.03;1.20;;;;;;;-1.15;100.00;102876.59;6302729;28;20055;-73
2023/02/28 01:48:09;;;;;;;2.45;1.13;;;;;;;-1.17;100.00;102873.09;6303789;28;20064;-72
2023/02/28 01:51:15;;;;;;;2.08;1.30;;;;;;;-1.18;100.00;102882.56;6302780;28;20194;-73
2023/02/28 01:54:19;;;;;;;1.95;1.35;;;;;;;-1.21;100.00;102876.41;6302385;28;20453;-73
2023/02/28 01:57:26;;;;;;;1.95;0.90;;;;;;;-1.21;100.00;102877.28;6302475;28;20348;-73
2023/02/28 02:00:28;;;;;;;1.75;0.90;;;;;;;-1.21;100.00;102874.72;6302358;28;20049;-73
2023/02/28 02:03:31;;;;;;;1.83;1.40;;;;;;;-1.17;100.00;102873.97;6302265;28;20048;-73
2023/02/28 02:06:37;;;;;;;3.40;1.50;;;;;;;-1.20;100.00;102875.59;6302022;28;20056;-73
2023/02/28 02:09:39;;;;;;;1.65;1.17;;;;;;;-1.19;100.00;102877.31;6302054;28;20057;-73
2023/02/28 02:13:01;;;;;;;4.47;1.40;;;;;;;-1.20;100.00;102870.44;6301908;28;20051;-73
2023/02/28 02:16:13;;;;;;;1.00;0.75;;;;;;;-1.25;100.00;102872.00;6301637;28;20059;-73
2023/02/28 02:19:40;;;;;;;1.73;1.25;;;;;;;-1.30;100.00;102871.88;6303088;28;20041;-73
2023/02/28 02:23:13;;;;;;;2.15;1.23;;;;;;;-1.33;100.00;102862.31;6301740;28;20051;-73
2023/02/28 02:26:44;;;;;;;4.93;1.92;;;;;;;-1.37;100.00;102862.19;6257621;28;20048;-73
2023/02/28 02:30:34;;;;;;;1.40;1.05;;;;;;;-1.43;100.00;102857.72;6301421;28;20348;-73
2023/02/28 02:34:03;;;;;;;1.85;0.88;;;;;;;-1.54;100.00;102851.38;6301260;28;20051;-74
2023/02/28 02:37:09;;;;;;;;;;;;;;;-1.58;100.00;102850.41;6301643;28;20099;-74
2023/02/28 02:40:16;;;;;;;2.15;1.00;;;;;;;-1.56;100.00;102853.03;6301461;28;19928;-73
2023/02/28 02:43:23;;;;;;;1.40;1.08;;;;;;;-1.57;100.00;102856.44;6301401;28;20063;-73
2023/02/28 02:46:29;;;;;;;4.43;1.60;;;;;;;-1.57;100.00;102859.00;6301204;28;20048;-74
2023/02/28 02:49:34;;;;;;;1.52;0.98;;;;;;;-1.67;100.00;102860.44;6302304;28;20519;-73
2023/02/28 02:52:40;;;;;;;3.13;1.60;;;;;;;-1.65;100.00;102865.63;6300935;28;20055;-73
2023/02/28 02:55:45;;;;;;;1.55;1.02;;;;;;;-1.64;100.00;102860.50;6300927;28;20098;-73
2023/02/28 02:58:49;;;;;;;3.25;1.23;;;;;;;-1.62;100.00;102861.44;6300858;28;20436;-73
2023/02/28 03:01:55;;;;;;;3.40;1.60;;;;;;;-1.57;100.00;102865.03;6300955;28;20055;-73
2023/02/28 03:05:02;;;;;;;5.00;1.83;;;;;;;-1.56;100.00;102874.50;6300583;28;20318;-73
2023/02/28 03:08:05;;;;;;;5.30;1.52;;;;;;;-1.61;100.00;102870.94;6300635;28;20044;-74
2023/02/28 03:11:13;;;;;;;5.55;1.40;;;;;;;-1.63;100.00;102876.88;6300707;28;20048;-74
2023/02/28 03:14:31;;;;;;;2.53;1.50;;;;;;;-1.67;100.00;102867.31;6300554;28;20094;-73
2023/02/28 03:17:49;;;;;;;7.40;1.73;;;;;;;-1.68;100.00;102869.00;6305469;28;20048;-73
2023/02/28 03:21:04;;;;;;;1.48;0.95;;;;;;;-1.79;100.00;102863.50;6325491;28;20052;-74
2023/02/28 03:24:10;;;;;;;1.13;1.02;;;;;;;-1.91;100.00;102862.22;6325702;28;20062;-74
2023/02/28 03:27:17;;;;;;;3.20;1.63;;;;;;;-1.85;100.00;102862.44;6324513;28;20428;-74
2023/02/28 03:30:25;;;;;;;1.55;0.85;;;;;;;-1.83;100.00;102861.63;6325755;28;20063;-73
2023/02/28 03:33:30;;;;;;;2.53;1.13;;;;;;;-1.81;100.00;102865.16;6325415;28;20044;-74
2023/02/28 03:36:43;;;;;;;2.97;1.38;;;;;;;-1.84;100.00;102864.19;6325665;28;20462;-73
2023/02/28 03:39:50;;;;;;;3.67;1.33;;;;;;;-1.94;100.00;102870.75;6325232;28;20171;-74
2023/02/28 03:42:58;;;;;;;7.70;1.38;;;;;;;-1.98;100.00;102868.03;6325516;28;20436;-74
2023/02/28 03:46:02;;;;;;;2.13;1.50;;;;;;;-1.95;100.00;102865.53;6319602;28;20126;-74
2023/02/28 03:49:10;;;;;;;4.90;1.00;;;;;;;-1.97;100.00;102865.47;6322188;28;20044;-74
2023/02/28 03:52:12;;;;;;;3.17;1.10;;;;;;;-1.94;100.00;102865.59;6316383;28;20055;-73
2023/02/28 03:55:17;;;;;;;3.22;1.48;;;;;;;-1.93;100.00;102859.59;6302880;28;20051;-73
2023/02/28 03:58:25;;;;;;;3.70;1.85;;;;;;;-1.96;100.00;102861.19;6315230;28;20096;-74
2023/02/28 04:01:33;;;;;;;2.42;1.83;;;;;;;-2.00;100.00;102873.09;6301196;28;20045;-74
2023/02/28 04:04:35;;;;;;;1.75;1.13;;;;;;;-2.01;100.00;102857.59;6316356;28;20455;-74
2023/02/28 04:07:37;;;;;;;4.35;1.20;;;;;;;-2.01;100.00;102860.19;6316592;28;20052;-74
2023/02/28 04:10:39;;;;;;;4.32;1.15;;;;;;;-2.03;100.00;102864.44;6324870;28;20044;-74
2023/02/28 04:13:41;;;;;;;2.47;1.42;;;;;;;-2.07;100.00;102868.59;6306940;28;20105;-75
2023/02/28 04:16:43;;;;;;;6.75;1.65;;;;;;;-2.14;100.00;102870.06;6299679;28;20057;-74
2023/02/28 04:19:44;;;;;;;1.98;1.48;;;;;;;-2.16;100.00;102873.44;6309469;28;20044;-75
2023/02/28 04:22:47;;;;;;;3.42;1.10;;;;;;;-2.16;100.00;102883.75;6324606;28;20048;-73
2023/02/28 04:25:50;;;;;;;4.70;1.65;;;;;;;-2.14;100.00;102879.50;6324453;28;20048;-74
2023/02/28 04:28:52;;;;;;;4.25;1.52;;;;;;;-2.14;100.00;102874.34;6324460;28;20178;-74
2023/02/28 04:31:54;;;;;;;1.33;1.02;;;;;;;-2.15;100.00;102870.91;6324429;28;20337;-74
2023/02/28 04:34:55;;;;;;;1.13;0.98;;;;;;;-2.17;100.00;102874.28;6324310;28;20048;-74
2023/02/28 04:37:57;;;;;;;2.33;1.15;;;;;;;-2.31;100.00;102868.66;6326987;28;20048;-75
2023/02/28 04:40:59;;;;;;;2.00;1.52;;;;;;;-2.27;100.00;102870.53;6329217;28;20055;-74
2023/02/28 04:44:01;;;;;;;3.75;1.60;;;;;;;-2.38;100.00;102862.41;6328391;28;20047;-75
2023/02/28 04:47:02;;;;;;;6.53;2.38;;;;;;;-2.37;100.00;102876.16;6318722;28;20386;-75
2023/02/28 04:50:04;;;;;;;1.63;1.50;;;;;;;-2.39;100.00;102880.41;6324795;28;20044;-75
2023/02/28 04:53:07;;;;;;;2.33;0.93;;;;;;;-2.44;100.00;102876.78;6309329;28;20040;-77
2023/02/28 04:56:11;;;;;;;5.30;1.98;;;;;;;-2.39;100.00;102881.25;6310504;28;20059;-75
2023/02/28 04:59:12;;;;;;;4.88;2.03;;;;;;;-2.41;100.00;102884.59;6295555;28;20041;-75
2023/02/28 05:02:14;;;;;;;4.00;1.50;;;;;;;-2.44;100.00;102892.22;6289048;28;20046;-75
2023/02/28 05:05:17;;;;;;;2.17;1.30;;;;;;;-2.44;100.00;102895.69;6308072;28;20042;-75
2023/02/28 05:08:20;;;;;;;4.50;1.50;;;;;;;-2.44;100.00;102889.66;6298292;28;20040;-74
2023/02/28 05:11:25;;;;;;;3.47;1.73;;;;;;;-2.48;100.00;102891.25;6308705;28;20612;-74
2023/02/28 05:14:26;;;;;;;2.20;1.20;;;;;;;-2.47;100.00;102886.97;6298788;28;20044;-75
2023/02/28 05:17:27;;;;;;;3.13;2.13;;;;;;;-2.50;100.00;102889.44;6319930;28;20047;-75
2023/02/28 05:20:29;;;;;;;1.90;1.23;;;;;;;-2.52;100.00;102893.66;6305934;28;20352;-75
2023/02/28 05:23:32;;;;;;;1.88;0.93;;;;;;;-2.65;100.00;102893.22;6320212;28;20101;-75
2023/02/28 05:26:36;;;;;;;2.40;1.83;;;;;;;-2.62;100.00;102892.47;6304049;28;20040;-75
2023/02/28 05:29:41;;;;;;;2.42;1.20;;;;;;;-2.58;100.00;102890.06;6305089;28;20043;-75
2023/02/28 05:32:43;;;;;;;4.03;1.88;;;;;;;-2.66;100.00;102895.75;6292354;28;20369;-75
2023/02/28 05:35:44;;;;;;;6.50;1.83;;;;;;;-2.70;100.00;102891.31;6312723;28;20129;-75
2023/02/28 05:38:48;;;;;;;2.25;1.70;;;;;;;-2.71;100.00;102899.84;6288842;28;20052;-76
2023/02/28 05:41:50;;;;;;;12.90;1.42;;;;;;;-2.74;100.00;102894.59;6285172;28;20123;-75
2023/02/28 05:44:51;;;;;;;1.95;0.85;;;;;;;-2.88;100.00;102899.25;6313902;28;20041;-75
2023/02/28 05:47:54;;;;;;;2.10;1.58;;;;;;;-2.81;100.00;102896.97;6317771;28;20048;-75
2023/02/28 05:50:55;;;;;;;1.90;1.42;;;;;;;-2.75;100.00;102903.13;6327089;28;20040;-76
2023/02/28 05:54:01;;;;;;;4.85;1.38;;;;;;;-2.72;100.00;102898.13;6327145;28;20047;-75
2023/02/28 05:57:02;;;;;;;1.58;1.13;;;;;;;-2.71;100.00;102898.16;6326974;28;20071;-75
2023/02/28 06:00:05;;;;;;;6.45;1.35;;;;;;;-2.74;100.00;102892.88;6327109;28;20424;-76
2023/02/28 06:03:06;;;;;;;1.00;0.93;;;;;;;-2.70;100.00;102891.31;6327157;28;20044;-75
2023/02/28 06:06:07;;;;;;;5.53;1.48;;;;;;;-2.71;100.00;102900.72;6318665;28;20475;-75
2023/02/28 06:09:10;;;;;;;1.65;1.27;;;;;;;-2.78;100.00;102906.47;6310100;28;20055;-75
2023/02/28 06:12:11;;;;;;;1.98;1.13;;;;;;;-2.82;100.00;102902.94;6326966;28;20458;-75
2023/02/28 06:15:14;;;;;;;2.20;0.80;;;;;;;-2.79;100.00;102907.28;6310187;28;20043;-76
2023/02/28 06:18:15;;;;;;;2.40;1.10;;;;;;;-2.77;100.00;102903.09;6310036;28;20514;-76
2023/02/28 06:21:17;;;;;;;2.25;1.10;;;;;;;-2.75;100.00;102903.13;6301653;28;20041;-76
2023/02/28 06:24:20;;;;;;;2.38;1.17;;;;;;;-2.88;100.00;102902.69;6324371;28;20352;-75
2023/02/28 06:27:21;;;;;;;2.67;1.50;;;;;;;-2.85;100.00;102907.94;6326425;28;20039;-75
2023/02/28 06:30:25;;;;;;;3.00;1.55;;;;;;;-2.80;100.00;102910.69;6326438;28;20446;-75
2023/02/28 06:33:26;;;;;;;1.48;0.80;;;;;;;-2.76;100.00;102914.25;6326459;28;20040;-75
2023/02/28 06:36:27;;;;;;;6.90;2.03;;;;;;;-2.75;100.00;102911.72;6326085;28;20051;-76
2023/02/28 06:39:30;;;;;;;3.25;1.25;;;;;;;-2.73;100.00;102909.19;6301909;28;20077;-75
2023/02/28 06:42:32;;;;;;;3.28;1.50;;;;;;;-2.72;100.00;102917.00;6301125;28;20044;-76
2023/02/28 06:45:33;;;;;;;4.05;2.50;;;;;;;-2.78;100.00;102918.47;6315873;28;20047;-76
2023/02/28 06:48:35;;;;;;;8.02;2.42;;;;;;;-2.81;100.00;102929.53;6317466;28;20052;-76
2023/02/28 06:51:38;;;;;;;3.45;1.80;;;;;;;-2.80;100.00;102931.28;6326140;28;20051;-76
2023/02/28 06:54:41;;;;;;;1.38;0.90;;;;;;;-2.74;100.00;102934.06;6318218;28;20043;-75
2023/02/28 06:57:43;;;;;;;3.45;1.88;;;;;;;-2.71;100.00;102938.47;6316345;28;20045;-76
2023/02/28 07:00:45;;;;;;;6.57;1.88;;;;;;;-2.67;100.00;102937.75;6312642;28;20048;-76
2023/02/28 07:03:51;;;;;;;9.75;3.00;;;;;;;-2.62;100.00;102942.25;6318928;28;20044;-76
2023/02/28 07:06:55;;;;;;;7.93;2.15;;;;;;;-2.52;100.00;102940.00;6325599;28;20466;-76
2023/02/28 07:09:58;;;;;;;5.55;2.30;;;;;;;-2.46;100.00;102945.34;6322259;28;20051;-75
2023/02/28 07:13:00;;;;;;;3.38;1.90;;;;;;;-2.42;100.00;102945.50;6312429;28;20044;-76
2023/02/28 07:16:04;;;;;;;3.15;1.92;;;;;;;-2.38;100.00;102952.53;6322948;28;20403;-76
2023/02/28 07:19:05;;;;;;;5.45;2.53;;;;;;;-2.34;100.00;102950.94;6317129;28;20040;-76
2023/02/28 07:22:07;;;;;;;7.65;2.65;;;;;;;-2.29;100.00;102957.13;6325417;28;20040;-76
2023/02/28 07:25:10;;;;;;;3.80;2.15;;;;;;;-2.22;100.00;102958.22;6312475;28;20052;-76
2023/02/28 07:28:11;;;;;;;5.45;2.47;;;;;;;-2.16;100.00;102956.72;6300163;28;20048;-76
2023/02/28 07:31:13;;;;;;;5.47;3.22;;;;;;;-2.12;100.00;102962.88;6314228;28;20047;-75
2023/02/28 07:34:15;;;;;;;9.73;3.55;;;;;;;-2.10;100.00;102951.78;6319246;28;20044;-76
2023/02/28 07:37:16;;;;;;;3.08;2.35;;;;;;;-2.07;100.00;102953.59;6305951;28;20051;-77
2023/02/28 07:40:19;;;;;;;7.60;2.20;;;;;;;-2.04;100.00;102951.13;6325318;28;20044;-76
2023/02/28 07:43:20;;;;;;;6.40;2.60;;;;;;;-1.99;100.00;102951.28;6325187;28;20161;-76
2023/02/28 07:46:22;;;;;;;3.35;2.22;;;;;;;-1.93;100.00;102959.22;6321271;28;20367;-76
2023/02/28 07:49:23;;;;;;;6.70;2.78;;;;;;;-1.85;100.00;102961.22;6308349;28;20048;-76
2023/02/28 07:52:24;;;;;;;13.98;2.40;;;;;;;-1.79;100.00;102955.41;6311341;28;20439;-76
2023/02/28 07:55:27;;;;;;;4.95;2.45;;;;;;;-1.71;100.00;102956.53;6324833;28;20036;-76
2023/02/28 07:58:30;;;;;;;3.35;2.20;;;;;;;-1.66;100.00;102960.13;6324883;28;20051;-76
2023/02/28 08:01:32;;;;;;;5.10;2.28;;;;;;;-1.61;100.00;102955.13;6324824;28;20058;-76
2023/02/28 08:04:33;;;;;;;3.67;2.53;;;;;;;-1.57;100.00;102968.16;6325044;28;20048;-76
2023/02/28 08:07:34;;;;;;;4.97;2.30;;;;;;;-1.50;100.00;102958.91;6307694;28;21247;-76
2023/02/28 08:10:38;;;;;;;4.65;1.85;;;;;;;-1.41;100.00;102961.81;6316723;28;20055;-76
2023/02/28 08:13:39;;;;;;;3.40;2.42;;;;;;;-1.34;100.00;102962.88;6327362;28;20051;-77
2023/02/28 08:16:40;;;;;;;6.50;2.95;;;;;;;-1.30;100.00;102969.88;6321229;28;20059;-76
2023/02/28 08:19:42;;;;;;;7.50;3.13;;;;;;;-1.24;100.00;102967.47;6329647;28;20055;-75
2023/02/28 08:22:43;;;;;;;3.78;2.15;;;;;;;-1.18;100.00;102967.69;6329592;28;20332;-75
2023/02/28 08:25:53;;;;;;;5.05;3.08;;;;;;;-1.09;100.00;102964.47;6323611;28;20055;-77
2023/02/28 08:28:54;;;;;;;5.90;3.60;;;;;;;-1.02;100.00;102953.53;6309223;28;20049;-76
2023/02/28 08:31:55;;;;;;;4.00;2.88;;;;;;;-0.92;100.00;102959.84;6311381;28;20056;-76
2023/02/28 08:34:57;;;;;;;4.13;2.38;;;;;;;-0.84;100.00;102953.19;6317197;28;20098;-75
2023/02/28 08:37:58;;;;;;;3.88;2.65;;;;;;;-0.78;100.00;102959.41;6315949;28;20051;-75
2023/02/28 08:41:05;;;;;;;5.22;2.65;;;;;;;-0.72;100.00;102961.31;6308458;28;20424;-75
2023/02/28 08:44:07;;;;;;;10.27;2.65;;;;;;;-0.65;100.00;102964.94;6313801;28;20043;-75
2023/02/28 08:47:08;;;;;;;3.55;2.30;;;;;;;-0.58;100.00;102964.28;6302889;28;20056;-75
2023/02/28 08:50:10;;;;;;;5.00;2.42;;;;;;;-0.51;100.00;102971.34;6312026;28;20044;-76
2023/02/28 08:53:12;;;;;;;5.57;2.50;;;;;;;-0.43;100.00;102971.56;6321171;28;20048;-76
2023/02/28 08:56:17;;;;;;;4.78;2.58;;;;;;;-0.33;100.00;102968.41;6313099;28;20056;-75
2023/02/28 08:59:18;;;;;;;5.10;2.70;;;;;;;-0.28;100.00;102972.84;6308372;28;20043;-75
2023/02/28 09:02:19;;;;;;;6.35;2.35;;;;;;;-0.25;100.00;102977.25;6305244;28;20403;-74
2023/02/28 09:05:21;;;;;;;3.92;2.22;;;;;;;-0.19;100.00;102982.56;6326815;28;20051;-75
2023/02/28 09:08:23;;;;;;;7.45;2.78;;;;;;;-0.10;100.00;102989.69;6313297;28;20054;-75
2023/02/28 09:11:26;;;;;;;4.45;2.13;;;;;;;-0.04;100.00;102983.00;6317132;28;20044;-74
2023/02/28 09:14:28;;;;;;;3.83;2.28;;;;;;;0.02;100.00;102981.41;6320529;28;20037;-74
2023/02/28 09:17:29;;;;;;;4.57;2.58;;;;;;;0.04;100.00;102984.88;6319974;28;20049;-74
2023/02/28 09:20:30;;;;;;;5.63;2.65;;;;;;;0.06;100.00;102980.66;6303450;28;20052;-74
2023/02/28 09:23:32;;;;;;;3.58;2.00;;;;;;;0.13;100.00;102986.00;6301042;28;20415;-74
2023/02/28 09:26:34;;;;;;;5.88;3.15;;;;;;;0.19;100.00;102986.19;6310979;28;20074;-74
2023/02/28 09:29:36;;;;;;;3.25;2.10;;;;;;;0.22;100.00;102977.59;6312664;28;20056;-76
2023/02/28 09:32:37;;;;;;;4.15;1.95;;;;;;;0.30;100.00;102985.56;6311209;28;20049;-75
2023/02/28 09:35:38;;;;;;;2.60;1.45;;;;;;;0.38;100.00;102982.34;6311421;28;20050;-76
2023/02/28 09:38:40;;;;;;;4.15;1.38;;;;;;;0.46;100.00;102978.22;6313375;28;20075;-74
2023/02/28 09:41:48;;;;;;;2.78;1.45;;;;;;;0.63;100.00;102977.75;6319311;28;20044;-73
2023/02/28 09:44:51;;;;;;;6.95;1.60;;;;;;;0.72;100.00;102980.53;6316903;28;20055;-73
2023/02/28 09:47:56;;;;;;;2.85;1.05;;;;;;;0.90;100.00;102975.78;6310466;28;20480;-73
2023/02/28 09:51:06;;;;;;;1.38;0.85;;;;;;;1.04;100.00;102973.50;6302379;28;20067;-73
2023/02/28 09:54:18;;;;;;;1.48;1.05;;;;;;;1.17;98.61;102977.25;6302214;28;20044;-73
2023/02/28 09:57:33;;;;;;;0.57;0.57;;;;;;;1.28;97.08;102973.19;6308553;28;20048;-74
2023/02/28 10:00:40;;;;;;;3.50;1.85;;;;;;;1.33;95.72;102981.03;6302226;28;20049;-74
2023/02/28 10:03:47;;;;;;;2.45;1.45;;;;;;;1.40;94.64;102973.41;6302164;28;20052;-74
2023/02/28 10:06:51;;;;;;;2.03;1.02;;;;;;;1.54;92.68;102973.69;6309974;28;20063;-74
2023/02/28 10:09:57;;;;;;;3.55;1.77;;;;;;;1.60;90.27;102970.38;6304396;28;20048;-74
2023/02/28 10:13:03;;;;;;;1.80;1.23;;;;;;;1.62;89.82;102968.66;6325440;28;20044;-74
2023/02/28 10:16:09;;;;;;;2.03;1.20;;;;;;;1.75;86.06;102957.69;6326720;28;20036;-76
2023/02/28 10:19:17;;;;;;;5.03;0.98;;;;;;;1.85;85.60;102971.69;6306852;28;20048;-77
2023/02/28 10:22:22;;;;;;;1.98;0.95;;;;;;;2.15;79.92;102969.66;6310211;28;20045;-76
2023/02/28 10:25:25;;;;;;;1.33;0.80;;;;;;;2.22;79.56;102963.72;6309053;28;20040;-76
2023/02/28 10:28:30;;;;;;;1.58;0.70;;;;;;;2.26;78.05;102972.41;6307413;28;20051;-76
2023/02/28 10:31:32;;;;;;;1.80;1.00;;;;;;;2.41;74.49;102970.09;6310299;28;20053;-75
2023/02/28 10:34:33;;;;;;;1.30;0.30;;;;;;;2.46;73.67;102965.84;6304968;28;20056;-78
2023/02/28 10:37:38;;;;;;;1.02;0.70;;;;;;;2.60;73.53;102970.38;6309397;28;20060;-77
2023/02/28 10:40:39;;;;;;;0.70;0.55;;;;;;;2.61;72.67;102983.38;6318200;28;20048;-75
2023/02/28 10:43:44;;;;;;;1.55;0.55;;;;;;;2.63;70.70;102978.19;6318591;28;20051;-75
2023/02/28 10:46:46;;;;;;;1.05;0.45;;;;;;;2.68;71.01;102981.75;6312636;28;20053;-76
2023/02/28 10:49:48;;;;;;;0.55;0.45;;;;;;;2.88;68.79;102977.72;6307409;28;20052;-76
2023/02/28 10:52:49;;;;;;;0.47;0.30;;;;;;;3.21;69.96;102974.72;6319573;28;20388;-76
2023/02/28 10:55:57;;;;;;;2.83;0.70;;;;;;;3.24;69.55;102974.75;6325814;28;20047;-76
2023/02/28 10:59:02;;;;;;;6.40;1.70;;;;;;;3.28;68.08;102976.56;6322331;28;20349;-76
2023/02/28 11:02:32;;;;;;;3.00;1.02;;;;;;;3.27;67.33;102976.50;6313141;28;20524;-76
2023/02/28 11:05:37;;;;;;;0.30;0.30;;;;;;;3.34;68.48;102974.88;6312320;28;20620;-72
2023/02/28 11:08:46;;;;;;;0.20;0.20;;;;;;;3.37;67.09;102973.19;6325629;28;20048;-75
2023/02/28 11:11:48;;;;;;;;;;;;;;;3.39;65.83;102971.47;6323745;28;20458;-75
2023/02/28 11:14:54;;;;;;;0.30;0.30;;;;;;;3.54;64.88;102962.97;6302368;28;19920;-75
2023/02/28 11:17:57;;;;;;;1.13;0.50;;;;;;;3.69;67.09;102963.16;6314590;28;20052;-75
2023/02/28 11:21:01;;;;;;;0.30;0.30;;;;;;;3.71;64.02;102953.66;6312160;28;20463;-76
2023/02/28 11:24:06;;;;;;;0.35;0.35;;;;;;;3.86;60.39;102955.56;6320620;28;20040;-75
2023/02/28 11:27:25;;;;;;;10.00;2.53;;;;;;;3.91;61.41;102953.00;6325220;28;20036;-75
2023/02/28 11:30:35;;;;;;;15.85;5.88;;;;;;;3.96;59.86;102946.97;6325159;28;20048;-73
2023/02/28 11:33:41;;;;;;;;;;;;;;;4.02;60.51;102943.56;6317398;28;20052;-75
2023/02/28 11:36:44;;;;;;;1.27;0.50;;;;;;;4.19;62.87;102936.78;6324916;28;19927;-75
2023/02/28 11:39:46;;;;;;;2.22;1.00;;;;;;;4.22;63.57;102934.19;6323458;28;20047;-74
2023/02/28 11:43:00;;;;;;;1.95;0.60;;;;;;;4.31;63.52;102925.56;6312575;28;20048;-74
2023/02/28 11:46:21;;;;;;;1.00;0.50;;;;;;;4.28;59.06;102921.22;6319501;28;20447;-75
2023/02/28 11:49:34;;;;;;;6.45;1.23;;;;;;;4.55;60.69;102927.50;6325169;28;20048;-75
2023/02/28 11:52:46;;;;;;;1.70;1.00;;;;;;;4.74;63.68;102921.53;6324933;28;20401;-74
2023/02/28 11:55:52;;;;;;;0.88;0.73;;;;;;;4.95;63.90;102922.50;6323028;28;20044;-75
2023/02/28 11:59:08;;;;;;;1.13;0.77;;;;;;;5.01;61.66;102926.03;6304403;28;20052;-74
2023/02/28 12:02:24;;;;;;;1.80;1.13;;;;;;;5.29;60.51;102923.53;6307599;28;20045;-74
2023/02/28 12:05:33;;;;;;;1.70;0.70;;;;;;;5.37;60.36;102915.75;6306548;28;20040;-74
2023/02/28 12:08:49;;;;;;;1.42;0.80;;;;;;;5.54;58.16;102908.81;6299109;28;20055;-74
2023/02/28 12:11:54;;;;;;;1.17;0.52;;;;;;;5.64;59.07;102899.31;6302962;28;20056;-74
2023/02/28 12:15:17;;;;;;;1.70;0.90;;;;;;;5.77;58.34;102908.91;6319090;28;20046;-74
2023/02/28 12:18:38;;;;;;;1.05;0.57;;;;;;;6.07;58.00;102897.63;6324197;28;20040;-74
2023/02/28 12:21:53;;;;;;;0.95;0.57;;;;;;;6.14;57.35;102898.50;6324416;28;20360;-74
2023/02/28 12:25:21;;;;;;;0.70;0.70;;;;;;;6.25;55.60;102891.53;6304794;28;20411;-74
2023/02/28 12:28:26;;;;;;;2.22;0.60;;;;;;;6.37;57.86;102878.47;6306920;28;20044;-74
2023/02/28 12:31:31;;;;;;;2.17;0.95;;;;;;;6.35;57.59;102882.81;6317112;28;20182;-73
2023/02/28 12:34:38;;;;;;;1.45;0.77;;;;;;;6.43;58.69;102880.19;6299180;28;20055;-74
2023/02/28 12:37:45;;;;;;;1.17;0.80;;;;;;;6.44;56.99;102880.19;6299323;28;20048;-74
2023/02/28 12:40:51;;;;;;;0.50;0.50;;;;;;;6.48;57.63;102870.59;6304252;28;20100;-74
2023/02/28 12:43:58;;;;;;;3.00;0.82;;;;;;;6.48;57.43;102865.38;6324530;28;20436;-74
2023/02/28 12:47:04;;;;;;;1.35;0.60;;;;;;;6.68;57.76;102863.59;6324275;28;20052;-74
2023/02/28 12:50:11;;;;;;;0.98;0.70;;;;;;;6.85;57.01;102860.91;6324512;28;20140;-74
2023/02/28 12:53:19;;;;;;;1.33;0.60;;;;;;;6.66;54.74;102859.25;6324338;28;20055;-74
2023/02/28 12:56:31;;;;;;;0.77;0.57;;;;;;;6.71;57.14;102858.34;6324071;28;20043;-74
2023/02/28 12:59:38;;;;;;;2.33;0.68;;;;;;;6.78;54.05;102846.13;6327904;28;20063;-74
2023/02/28 13:02:57;;;;;;;1.38;0.73;;;;;;;6.71;53.39;102844.41;6329156;28;20048;-74
2023/02/28 13:06:23;;;;;;;0.70;0.53;;;;;;;6.97;54.61;102839.94;6328397;28;20048;-74
2023/02/28 13:09:25;;;;;;;1.52;1.17;;;;;;;6.93;52.18;102839.97;6328275;28;20048;-74
2023/02/28 13:12:27;;;;;;;1.13;0.47;;;;;;;7.03;53.22;102842.53;6319450;28;20375;-74
2023/02/28 13:15:29;;;;;;;1.73;0.75;;;;;;;7.40;52.89;102841.44;6327588;28;20447;-75
2023/02/28 13:18:37;;;;;;;3.13;1.13;;;;;;;7.38;52.92;102833.63;6328209;28;20055;-73
2023/02/28 13:21:45;;;;;;;1.00;0.57;;;;;;;7.79;53.27;102829.84;6328421;28;20052;-75
2023/02/28 13:24:51;;;;;;;10.05;1.50;;;;;;;7.59;50.99;102832.63;6322980;28;20056;-74
2023/02/28 13:27:56;;;;;;;0.77;0.60;;;;;;;7.51;49.99;102824.81;6302099;28;20049;-74
2023/02/28 13:31:05;;;;;;;5.18;1.73;;;;;;;7.32;50.14;102828.44;6302859;28;20049;-76
2023/02/28 13:34:13;;;;;;;;;;;;;;;7.43;51.64;102813.53;6305048;28;20356;-75
2023/02/28 13:37:38;;;;;;;3.47;1.00;;;;;;;7.61;51.84;102815.16;6301187;28;19928;-76
2023/02/28 13:40:39;;;;;;;0.93;0.52;;;;;;;7.82;51.26;102811.50;6311945;28;20048;-77
2023/02/28 13:44:01;;;;;;;0.70;0.40;;;;;;;7.88;50.54;102800.97;6313549;28;20048;-75
2023/02/28 13:47:34;;;;;;;0.93;0.68;;;;;;;7.95;49.80;102807.00;6308005;28;20468;-76
2023/02/28 13:50:37;;;;;;;2.33;0.73;;;;;;;7.84;49.74;102791.41;6302433;28;20052;-76
2023/02/28 13:54:04;;;;;;;0.68;0.52;;;;;;;7.74;51.03;102793.22;6316023;28;20094;-78
2023/02/28 13:57:21;;;;;;;1.52;0.68;;;;;;;8.10;48.14;102789.41;6306367;28;20044;-77
2023/02/28 14:00:35;;;;;;;1.10;0.50;;;;;;;7.97;49.93;102782.56;6303989;28;20048;-76
2023/02/28 14:03:58;;;;;;;1.05;0.82;;;;;;;7.99;49.58;102786.00;6302355;28;20051;-77
2023/02/28 14:07:01;;;;;;;2.42;0.50;;;;;;;8.20;49.62;102782.31;6317716;28;20051;-76
2023/02/28 14:10:08;;;;;;;0.95;0.73;;;;;;;8.20;49.28;102784.94;6317297;28;20036;-76
2023/02/28 14:13:32;;;;;;;0.68;0.50;;;;;;;8.12;49.85;102792.00;6327114;28;20382;-77
2023/02/28 14:16:40;;;;;;;0.68;0.60;;;;;;;8.46;48.89;102784.69;6308531;28;20052;-78
2023/02/28 14:19:46;;;;;;;0.70;0.60;;;;;;;8.36;49.87;102788.25;6311157;28;20169;-76
2023/02/28 14:22:58;;;;;;;1.33;0.50;;;;;;;8.06;49.36;102786.84;6311517;28;20390;-76